sensor_id;sensor_type;location;lat;lon;timestamp;pressure;altitude;pressure_sealevel;temperature;humidity
6343;BME280;3204;42.698;23.298;2022-09-21T00:01:19;95098.53;;;11.28;68.53
6343;BME280;3204;42.698;23.298;2022-09-21T00:03:46;95102.31;;;11.19;69.19
6343;BME280;3204;42.698;23.298;2022-09-21T00:06:17;95096.69;;;11.15;69.25
6343;BME280;3204;42.698;23.298;2022-09-21T00:08:44;95110.56;;;11.14;69.51
6343;BME280;3204;42.698;23.298;2022-09-21T00:11:16;95104.31;;;11.13;69.08
6343;BME280;3204;42.698;23.298;2022-09-21T00:13:42;95099.59;;;11.19;69.79
6343;BME280;3204;42.698;23.298;2022-09-21T00:16:12;95105.19;;;11.22;69.42
6343;BME280;3204;42.698;23.298;2022-09-21T00:18:37;95099.03;;;11.08;69.35
6343;BME280;3204;42.698;23.298;2022-09-21T00:21:10;95099.03;;;11.08;69.15
6343;BME280;3204;42.698;23.298;2022-09-21T00:23:37;95094.28;;;11.14;69.32
6343;BME280;3204;42.698;23.298;2022-09-21T00:26:11;95099.72;;;11.14;68.91
6343;BME280;3204;42.698;23.298;2022-09-21T00:28:38;95107.72;;;10.97;69.52
6343;BME280;3204;42.698;23.298;2022-09-21T00:31:06;95092.56;;;11.18;69.10
6343;BME280;3204;42.698;23.298;2022-09-21T00:33:32;95090.31;;;11.20;68.61
6343;BME280;3204;42.698;23.298;2022-09-21T00:36:06;95105.38;;;11.04;68.55
6343;BME280;3204;42.698;23.298;2022-09-21T00:38:32;95103.25;;;10.79;69.57
6343;BME280;3204;42.698;23.298;2022-09-21T00:40:58;95096.91;;;10.83;69.35
6343;BME280;3204;42.698;23.298;2022-09-21T00:43:24;95094.19;;;10.83;69.07
6343;BME280;3204;42.698;23.298;2022-09-21T00:46:02;95099.44;;;11.02;67.90
6343;BME280;3204;42.698;23.298;2022-09-21T00:48:28;95103.91;;;10.98;67.58
6343;BME280;3204;42.698;23.298;2022-09-21T00:50:56;95097.22;;;10.82;68.13
6343;BME280;3204;42.698;23.298;2022-09-21T00:53:23;95095.78;;;10.62;68.36
6343;BME280;3204;42.698;23.298;2022-09-21T00:55:53;95098.16;;;10.64;69.02
6343;BME280;3204;42.698;23.298;2022-09-21T00:58:25;95104.03;;;10.44;69.55
6343;BME280;3204;42.698;23.298;2022-09-21T01:00:54;95094.13;;;10.26;70.57
6343;BME280;3204;42.698;23.298;2022-09-21T01:03:20;95096.19;;;10.42;70.02
6343;BME280;3204;42.698;23.298;2022-09-21T01:05:46;95091.22;;;10.22;70.19
6343;BME280;3204;42.698;23.298;2022-09-21T01:08:12;95090.50;;;10.17;70.67
6343;BME280;3204;42.698;23.298;2022-09-21T01:14:10;95090.84;;;10.15;71.53
6343;BME280;3204;42.698;23.298;2022-09-21T01:17:05;95086.59;;;9.96;71.88
6343;BME280;3204;42.698;23.298;2022-09-21T01:19:47;95093.41;;;10.07;71.52
6343;BME280;3204;42.698;23.298;2022-09-21T01:22:47;95085.53;;;10.10;71.70
6343;BME280;3204;42.698;23.298;2022-09-21T01:30:51;95082.59;;;10.07;71.42
6343;BME280;3204;42.698;23.298;2022-09-21T01:33:28;95079.75;;;9.98;71.34
6343;BME280;3204;42.698;23.298;2022-09-21T01:35:59;95072.63;;;10.02;71.46
6343;BME280;3204;42.698;23.298;2022-09-21T01:38:34;95061.91;;;9.97;71.22
6343;BME280;3204;42.698;23.298;2022-09-21T01:41:04;95070.63;;;9.94;71.70
6343;BME280;3204;42.698;23.298;2022-09-21T01:43:36;95072.84;;;9.92;71.02
6343;BME280;3204;42.698;23.298;2022-09-21T01:46:05;95073.81;;;9.83;71.71
6343;BME280;3204;42.698;23.298;2022-09-21T01:48:37;95068.94;;;9.85;72.26
6343;BME280;3204;42.698;23.298;2022-09-21T01:51:07;95076.72;;;9.86;72.09
6343;BME280;3204;42.698;23.298;2022-09-21T01:53:38;95067.81;;;9.86;72.19
6343;BME280;3204;42.698;23.298;2022-09-21T01:56:21;95071.94;;;9.83;72.27
6343;BME280;3204;42.698;23.298;2022-09-21T01:58:53;95077.25;;;9.88;72.88
6343;BME280;3204;42.698;23.298;2022-09-21T02:01:22;95075.34;;;9.89;72.24
6343;BME280;3204;42.698;23.298;2022-09-21T02:03:57;95081.66;;;9.98;72.68
6343;BME280;3204;42.698;23.298;2022-09-21T02:06:27;95077.53;;;10.00;72.75
6343;BME280;3204;42.698;23.298;2022-09-21T02:08:53;95077.63;;;9.95;72.45
6343;BME280;3204;42.698;23.298;2022-09-21T02:11:18;95070.44;;;10.18;75.00
6343;BME280;3204;42.698;23.298;2022-09-21T02:13:45;95073.03;;;10.36;74.99
6343;BME280;3204;42.698;23.298;2022-09-21T02:16:46;95084.78;;;10.18;73.62
6343;BME280;3204;42.698;23.298;2022-09-21T02:19:49;95082.34;;;10.03;73.28
6343;BME280;3204;42.698;23.298;2022-09-21T02:22:30;95088.81;;;10.07;73.03
6343;BME280;3204;42.698;23.298;2022-09-21T02:25:08;95079.75;;;9.98;72.65
6343;BME280;3204;42.698;23.298;2022-09-21T02:27:47;95087.41;;;9.96;73.13
6343;BME280;3204;42.698;23.298;2022-09-21T02:30:24;95081.47;;;9.94;73.30
6343;BME280;3204;42.698;23.298;2022-09-21T02:33:18;95083.34;;;9.80;73.51
6343;BME280;3204;42.698;23.298;2022-09-21T02:38:52;95080.78;;;9.89;72.92
6343;BME280;3204;42.698;23.298;2022-09-21T02:41:25;95087.59;;;10.00;72.71
6343;BME280;3204;42.698;23.298;2022-09-21T02:46:49;95077.44;;;9.92;73.03
6343;BME280;3204;42.698;23.298;2022-09-21T02:49:22;95080.78;;;9.89;72.85
6343;BME280;3204;42.698;23.298;2022-09-21T02:51:53;95076.94;;;9.90;72.89
6343;BME280;3204;42.698;23.298;2022-09-21T02:54:26;95079.53;;;9.81;73.82
6343;BME280;3204;42.698;23.298;2022-09-21T02:56:54;95080.44;;;9.77;73.57
6343;BME280;3204;42.698;23.298;2022-09-21T02:59:19;95082.78;;;9.70;73.31
6343;BME280;3204;42.698;23.298;2022-09-21T03:01:49;95088.34;;;9.60;73.51
6343;BME280;3204;42.698;23.298;2022-09-21T03:04:15;95086.78;;;9.72;73.59
6343;BME280;3204;42.698;23.298;2022-09-21T03:06:41;95088.34;;;9.60;73.19
6343;BME280;3204;42.698;23.298;2022-09-21T03:09:07;95091.59;;;9.62;73.36
6343;BME280;3204;42.698;23.298;2022-09-21T03:11:33;95091.97;;;9.55;73.83
6343;BME280;3204;42.698;23.298;2022-09-21T03:14:01;95094.97;;;9.67;73.53
6343;BME280;3204;42.698;23.298;2022-09-21T03:16:27;95090.19;;;9.64;73.21
6343;BME280;3204;42.698;23.298;2022-09-21T03:18:53;95082.06;;;9.64;73.05
6343;BME280;3204;42.698;23.298;2022-09-21T03:21:19;95089.66;;;9.62;73.44
6343;BME280;3204;42.698;23.298;2022-09-21T03:23:44;95072.53;;;9.53;73.39
6343;BME280;3204;42.698;23.298;2022-09-21T03:26:10;95091.47;;;9.53;74.01
6343;BME280;3204;42.698;23.298;2022-09-21T03:28:35;95093.56;;;9.56;73.99
6343;BME280;3204;42.698;23.298;2022-09-21T03:31:01;95088.56;;;9.63;73.77
6343;BME280;3204;42.698;23.298;2022-09-21T03:33:26;95093.00;;;9.73;73.08
6343;BME280;3204;42.698;23.298;2022-09-21T03:35:52;95092.47;;;9.57;74.08
6343;BME280;3204;42.698;23.298;2022-09-21T03:38:19;95093.75;;;9.60;73.83
6343;BME280;3204;42.698;23.298;2022-09-21T03:40:46;95088.34;;;9.60;73.88
6343;BME280;3204;42.698;23.298;2022-09-21T03:43:13;95092.69;;;9.61;73.51
6343;BME280;3204;42.698;23.298;2022-09-21T03:45:40;95091.88;;;9.60;73.99
6343;BME280;3204;42.698;23.298;2022-09-21T03:48:07;95091.78;;;9.52;73.93
6343;BME280;3204;42.698;23.298;2022-09-21T03:50:32;95099.69;;;9.62;74.37
6343;BME280;3204;42.698;23.298;2022-09-21T03:52:58;95101.88;;;9.60;73.43
6343;BME280;3204;42.698;23.298;2022-09-21T03:55:24;95102.38;;;9.48;73.85
6343;BME280;3204;42.698;23.298;2022-09-21T03:57:50;95100.19;;;9.50;74.67
6343;BME280;3204;42.698;23.298;2022-09-21T04:00:16;95101.38;;;9.44;74.72
6343;BME280;3204;42.698;23.298;2022-09-21T04:02:41;95100.38;;;9.54;73.75
6343;BME280;3204;42.698;23.298;2022-09-21T04:05:09;95099.78;;;9.57;73.89
6343;BME280;3204;42.698;23.298;2022-09-21T04:07:35;95103.63;;;9.56;74.15
6343;BME280;3204;42.698;23.298;2022-09-21T04:10:05;95109.41;;;9.49;74.55
6343;BME280;3204;42.698;23.298;2022-09-21T04:12:32;95105.97;;;9.44;74.33
6343;BME280;3204;42.698;23.298;2022-09-21T04:15:01;95109.09;;;9.51;75.11
6343;BME280;3204;42.698;23.298;2022-09-21T04:17:28;95105.06;;;9.48;74.29
6343;BME280;3204;42.698;23.298;2022-09-21T04:19:53;95109.78;;;9.43;75.02
6343;BME280;3204;42.698;23.298;2022-09-21T04:22:19;95102.78;;;9.42;74.90
6343;BME280;3204;42.698;23.298;2022-09-21T04:24:44;95102.69;;;9.47;75.25
6343;BME280;3204;42.698;23.298;2022-09-21T04:27:10;95109.78;;;9.43;75.75
6343;BME280;3204;42.698;23.298;2022-09-21T04:29:37;95107.09;;;9.43;75.03
6343;BME280;3204;42.698;23.298;2022-09-21T04:32:03;95099.56;;;9.40;75.25
6343;BME280;3204;42.698;23.298;2022-09-21T04:34:30;95103.56;;;9.42;75.33
6343;BME280;3204;42.698;23.298;2022-09-21T04:36:56;95102.38;;;9.48;75.08
6343;BME280;3204;42.698;23.298;2022-09-21T04:39:23;95104.69;;;9.55;75.19
6343;BME280;3204;42.698;23.298;2022-09-21T04:41:48;95104.09;;;9.58;74.56
6343;BME280;3204;42.698;23.298;2022-09-21T04:44:14;95099.88;;;9.52;74.92
6343;BME280;3204;42.698;23.298;2022-09-21T04:46:39;95103.44;;;9.66;74.84
6343;BME280;3204;42.698;23.298;2022-09-21T04:49:05;95106.63;;;9.68;74.69
6343;BME280;3204;42.698;23.298;2022-09-21T04:51:30;95099.09;;;9.65;75.13
6343;BME280;3204;42.698;23.298;2022-09-21T04:53:56;95113.63;;;9.69;75.01
6343;BME280;3204;42.698;23.298;2022-09-21T04:56:21;95115.75;;;9.72;75.02
6343;BME280;3204;42.698;23.298;2022-09-21T04:58:47;95111.75;;;9.83;74.90
6343;BME280;3204;42.698;23.298;2022-09-21T05:01:12;95115.69;;;10.04;74.06
6343;BME280;3204;42.698;23.298;2022-09-21T05:03:38;95113.28;;;10.02;74.29
6343;BME280;3204;42.698;23.298;2022-09-21T05:06:04;95109.47;;;10.03;74.56
6343;BME280;3204;42.698;23.298;2022-09-21T05:08:29;95119.53;;;10.16;74.69
6343;BME280;3204;42.698;23.298;2022-09-21T05:11:15;95117.91;;;10.29;74.59
6343;BME280;3204;42.698;23.298;2022-09-21T05:13:43;95108.44;;;10.40;76.23
6343;BME280;3204;42.698;23.298;2022-09-21T05:16:08;95119.72;;;10.47;74.85
6343;BME280;3204;42.698;23.298;2022-09-21T05:18:34;95126.63;;;10.53;73.76
6343;BME280;3204;42.698;23.298;2022-09-21T05:21:01;95128.63;;;10.61;73.17
6343;BME280;3204;42.698;23.298;2022-09-21T05:23:29;95124.75;;;10.75;71.91
6343;BME280;3204;42.698;23.298;2022-09-21T05:25:56;95122.22;;;10.79;71.45
6343;BME280;3204;42.698;23.298;2022-09-21T05:28:22;95118.03;;;10.73;72.07
6343;BME280;3204;42.698;23.298;2022-09-21T05:30:56;95125.88;;;10.74;71.36
6343;BME280;3204;42.698;23.298;2022-09-21T05:33:25;95118.78;;;10.65;71.11
6343;BME280;3204;42.698;23.298;2022-09-21T05:36:31;95117.16;;;10.64;70.91
6343;BME280;3204;42.698;23.298;2022-09-21T05:38:59;95127.63;;;10.57;71.26
6343;BME280;3204;42.698;23.298;2022-09-21T05:41:25;95119.59;;;10.52;72.12
6343;BME280;3204;42.698;23.298;2022-09-21T05:43:50;95118.25;;;10.63;72.24
6343;BME280;3204;42.698;23.298;2022-09-21T05:46:18;95131.69;;;10.81;71.98
6343;BME280;3204;42.698;23.298;2022-09-21T05:48:53;95124.63;;;10.94;71.40
6343;BME280;3204;42.698;23.298;2022-09-21T05:57:50;95115.00;;;11.54;68.38
6343;BME280;3204;42.698;23.298;2022-09-21T06:00:03;95113.41;;;11.75;67.43
6343;BME280;3204;42.698;23.298;2022-09-21T06:02:41;95118.03;;;11.74;67.12
6343;BME280;3204;42.698;23.298;2022-09-21T06:05:12;95123.00;;;11.81;67.55
6343;BME280;3204;42.698;23.298;2022-09-21T06:07:38;95121.28;;;11.85;67.29
6343;BME280;3204;42.698;23.298;2022-09-21T06:10:04;95127.19;;;11.87;66.31
6343;BME280;3204;42.698;23.298;2022-09-21T06:12:30;95127.91;;;11.70;66.33
6343;BME280;3204;42.698;23.298;2022-09-21T06:14:56;95127.13;;;11.70;67.09
6343;BME280;3204;42.698;23.298;2022-09-21T06:17:22;95129.72;;;11.75;66.69
6343;BME280;3204;42.698;23.298;2022-09-21T06:19:51;95122.25;;;12.19;71.70
6343;BME280;3204;42.698;23.298;2022-09-21T06:22:17;95126.72;;;12.24;67.41
6343;BME280;3204;42.698;23.298;2022-09-21T06:24:42;95126.59;;;12.29;66.51
6343;BME280;3204;42.698;23.298;2022-09-21T06:27:07;95129.19;;;12.42;65.46
6343;BME280;3204;42.698;23.298;2022-09-21T06:29:33;95134.81;;;12.46;66.19
6343;BME280;3204;42.698;23.298;2022-09-21T06:32:01;95135.50;;;12.60;65.51
6343;BME280;3204;42.698;23.298;2022-09-21T06:34:26;95139.34;;;12.76;65.08
6343;BME280;3204;42.698;23.298;2022-09-21T06:36:52;95130.25;;;12.89;64.49
6343;BME280;3204;42.698;23.298;2022-09-21T06:39:18;95139.13;;;13.03;63.81
6343;BME280;3204;42.698;23.298;2022-09-21T06:41:43;95143.59;;;13.07;63.99
6343;BME280;3204;42.698;23.298;2022-09-21T06:44:09;95139.44;;;13.27;63.56
6343;BME280;3204;42.698;23.298;2022-09-21T06:46:35;95147.13;;;13.42;63.31
6343;BME280;3204;42.698;23.298;2022-09-21T06:49:01;95146.16;;;13.63;62.09
6343;BME280;3204;42.698;23.298;2022-09-21T06:51:26;95142.09;;;13.86;61.44
6343;BME280;3204;42.698;23.298;2022-09-21T06:53:56;95146.38;;;14.04;61.17
6343;BME280;3204;42.698;23.298;2022-09-21T06:56:24;95150.84;;;14.26;60.62
6343;BME280;3204;42.698;23.298;2022-09-21T06:58:50;95153.31;;;14.48;59.45
6343;BME280;3204;42.698;23.298;2022-09-21T07:01:16;95152.72;;;14.71;58.80
6343;BME280;3204;42.698;23.298;2022-09-21T07:03:42;95148.28;;;14.87;59.04
6343;BME280;3204;42.698;23.298;2022-09-21T07:06:10;95152.09;;;14.95;58.79
6343;BME280;3204;42.698;23.298;2022-09-21T07:08:36;95155.69;;;15.07;58.53
6343;BME280;3204;42.698;23.298;2022-09-21T07:11:02;95156.00;;;15.14;57.81
6343;BME280;3204;42.698;23.298;2022-09-21T07:13:28;95154.94;;;15.27;57.95
6343;BME280;3204;42.698;23.298;2022-09-21T07:15:54;95153.47;;;15.30;57.57
6343;BME280;3204;42.698;23.298;2022-09-21T07:18:20;95151.84;;;15.29;57.62
6343;BME280;3204;42.698;23.298;2022-09-21T07:20:46;95156.03;;;15.35;57.44
6343;BME280;3204;42.698;23.298;2022-09-21T07:23:18;95158.91;;;15.38;57.37
6343;BME280;3204;42.698;23.298;2022-09-21T07:25:46;95151.75;;;15.46;57.37
6343;BME280;3204;42.698;23.298;2022-09-21T07:28:17;95156.09;;;15.47;56.99
6343;BME280;3204;42.698;23.298;2022-09-21T07:30:42;95153.84;;;15.49;57.65
6343;BME280;3204;42.698;23.298;2022-09-21T07:33:08;95154.28;;;15.51;56.73
6343;BME280;3204;42.698;23.298;2022-09-21T07:35:33;95157.22;;;15.46;56.80
6343;BME280;3204;42.698;23.298;2022-09-21T07:38:04;95165.50;;;15.58;58.26
6343;BME280;3204;42.698;23.298;2022-09-21T07:40:30;95161.75;;;15.62;56.85
6343;BME280;3204;42.698;23.298;2022-09-21T07:43:00;95165.34;;;15.54;56.52
6343;BME280;3204;42.698;23.298;2022-09-21T07:45:29;95164.13;;;15.23;57.02
6343;BME280;3204;42.698;23.298;2022-09-21T07:48:01;95158.97;;;15.21;57.69
6343;BME280;3204;42.698;23.298;2022-09-21T07:50:26;95156.13;;;15.18;57.61
6343;BME280;3204;42.698;23.298;2022-09-21T07:52:52;95154.31;;;15.22;57.74
6343;BME280;3204;42.698;23.298;2022-09-21T07:55:17;95152.34;;;15.31;57.32
6343;BME280;3204;42.698;23.298;2022-09-21T07:57:42;95146.03;;;15.39;57.06
6343;BME280;3204;42.698;23.298;2022-09-21T08:00:26;95146.47;;;15.61;55.98
6343;BME280;3204;42.698;23.298;2022-09-21T08:02:53;95151.44;;;15.80;56.06
6343;BME280;3204;42.698;23.298;2022-09-21T08:05:18;95151.00;;;15.78;55.15
6343;BME280;3204;42.698;23.298;2022-09-21T08:07:44;95149.72;;;15.75;55.38
6343;BME280;3204;42.698;23.298;2022-09-21T08:10:09;95151.44;;;15.80;55.08
6343;BME280;3204;42.698;23.298;2022-09-21T08:12:35;95152.81;;;15.86;55.08
6343;BME280;3204;42.698;23.298;2022-09-21T08:15:00;95144.34;;;16.11;53.45
6343;BME280;3204;42.698;23.298;2022-09-21T08:17:26;95147.81;;;16.20;53.79
6343;BME280;3204;42.698;23.298;2022-09-21T08:19:51;95143.44;;;16.40;53.12
6343;BME280;3204;42.698;23.298;2022-09-21T08:22:19;95141.63;;;16.80;52.48
6343;BME280;3204;42.698;23.298;2022-09-21T08:24:47;95146.88;;;16.97;51.35
6343;BME280;3204;42.698;23.298;2022-09-21T08:27:12;95137.50;;;17.10;50.03
6343;BME280;3204;42.698;23.298;2022-09-21T08:29:38;95132.25;;;17.05;49.45
6343;BME280;3204;42.698;23.298;2022-09-21T08:32:04;95132.25;;;17.05;49.92
6343;BME280;3204;42.698;23.298;2022-09-21T08:34:29;95136.59;;;16.70;49.02
6343;BME280;3204;42.698;23.298;2022-09-21T08:36:55;95131.69;;;16.63;49.38
6343;BME280;3204;42.698;23.298;2022-09-21T08:39:20;95135.22;;;16.64;48.85
6343;BME280;3204;42.698;23.298;2022-09-21T08:44:47;95139.03;;;16.27;50.03
6343;BME280;3204;42.698;23.298;2022-09-21T08:47:35;95133.41;;;16.44;50.17
6343;BME280;3204;42.698;23.298;2022-09-21T08:50:05;95128.50;;;16.73;49.67
6343;BME280;3204;42.698;23.298;2022-09-21T08:52:37;95121.66;;;16.80;49.05
6343;BME280;3204;42.698;23.298;2022-09-21T08:55:15;95118.31;;;16.98;48.83
6343;BME280;3204;42.698;23.298;2022-09-21T08:57:41;95121.50;;;17.12;48.83
6343;BME280;3204;42.698;23.298;2022-09-21T09:00:13;95110.94;;;17.38;46.89
6343;BME280;3204;42.698;23.298;2022-09-21T09:05:55;95107.03;;;17.79;46.76
6343;BME280;3204;42.698;23.298;2022-09-21T09:08:50;95114.44;;;18.06;45.16
6343;BME280;3204;42.698;23.298;2022-09-21T09:11:43;95106.28;;;18.09;44.98
6343;BME280;3204;42.698;23.298;2022-09-21T09:20:06;95110.72;;;17.43;45.42
6343;BME280;3204;42.698;23.298;2022-09-21T09:22:42;95102.94;;;17.45;46.35
6343;BME280;3204;42.698;23.298;2022-09-21T09:25:20;95096.06;;;17.51;47.03
6343;BME280;3204;42.698;23.298;2022-09-21T09:27:48;95100.50;;;17.56;46.42
6343;BME280;3204;42.698;23.298;2022-09-21T09:30:20;95097.16;;;17.62;45.88
6343;BME280;3204;42.698;23.298;2022-09-21T09:32:51;95094.63;;;17.69;45.52
6343;BME280;3204;42.698;23.298;2022-09-21T09:35:51;95097.88;;;18.02;44.65
6343;BME280;3204;42.698;23.298;2022-09-21T09:38:27;95092.84;;;18.20;44.21
6343;BME280;3204;42.698;23.298;2022-09-21T09:46:30;95090.28;;;18.11;44.84
6343;BME280;3204;42.698;23.298;2022-09-21T09:49:23;95083.34;;;18.02;44.55
6343;BME280;3204;42.698;23.298;2022-09-21T09:51:53;95076.50;;;17.80;44.45
6343;BME280;3204;42.698;23.298;2022-09-21T09:54:20;95072.66;;;17.69;45.11
6343;BME280;3204;42.698;23.298;2022-09-21T09:56:48;95066.31;;;17.81;44.95
6343;BME280;3204;42.698;23.298;2022-09-21T09:59:33;95070.78;;;18.01;45.23
6343;BME280;3204;42.698;23.298;2022-09-21T10:02:09;95065.56;;;18.11;44.29
6343;BME280;3204;42.698;23.298;2022-09-21T10:05:00;95065.94;;;18.25;43.68
6343;BME280;3204;42.698;23.298;2022-09-21T10:07:44;95058.97;;;18.43;43.93
6343;BME280;3204;42.698;23.298;2022-09-21T10:12:48;95057.75;;;18.75;42.42
6343;BME280;3204;42.698;23.298;2022-09-21T10:15:16;95052.78;;;19.15;41.95
6343;BME280;3204;42.698;23.298;2022-09-21T10:17:44;95054.94;;;19.60;39.92
6343;BME280;3204;42.698;23.298;2022-09-21T10:20:17;95053.53;;;19.88;40.15
6343;BME280;3204;42.698;23.298;2022-09-21T10:22:47;95040.41;;;20.68;39.29
6343;BME280;3204;42.698;23.298;2022-09-21T10:25:18;95033.59;;;21.40;37.90
6343;BME280;3204;42.698;23.298;2022-09-21T10:27:47;95036.22;;;21.92;35.95
6343;BME280;3204;42.698;23.298;2022-09-21T10:30:36;95027.53;;;21.90;35.30
6343;BME280;3204;42.698;23.298;2022-09-21T10:33:18;95030.28;;;21.57;36.10
6343;BME280;3204;42.698;23.298;2022-09-21T10:35:51;95034.28;;;21.63;34.66
6343;BME280;3204;42.698;23.298;2022-09-21T10:38:24;95030.69;;;21.59;34.78
6343;BME280;3204;42.698;23.298;2022-09-21T10:40:53;95024.41;;;21.92;34.24
6343;BME280;3204;42.698;23.298;2022-09-21T10:43:35;95021.56;;;22.25;33.13
6343;BME280;3204;42.698;23.298;2022-09-21T10:46:06;95017.28;;;22.31;32.36
6343;BME280;3204;42.698;23.298;2022-09-21T10:48:31;95016.47;;;22.70;32.32
6343;BME280;3204;42.698;23.298;2022-09-21T10:50:57;95020.16;;;22.88;32.37
6343;BME280;3204;42.698;23.298;2022-09-21T10:53:27;95018.28;;;23.06;32.05
6343;BME280;3204;42.698;23.298;2022-09-21T10:56:06;95020.47;;;23.37;31.07
6343;BME280;3204;42.698;23.298;2022-09-21T11:01:50;95017.03;;;23.68;31.33
6343;BME280;3204;42.698;23.298;2022-09-21T11:06:49;95004.50;;;23.99;29.49
6343;BME280;3204;42.698;23.298;2022-09-21T11:09:21;95011.28;;;24.15;30.14
6343;BME280;3204;42.698;23.298;2022-09-21T11:12:02;95015.84;;;23.62;29.37
6343;BME280;3204;42.698;23.298;2022-09-21T11:17:15;95007.47;;;22.87;31.32
6343;BME280;3204;42.698;23.298;2022-09-21T11:25:03;94994.50;;;22.01;32.36
6343;BME280;3204;42.698;23.298;2022-09-21T11:27:37;95004.63;;;22.30;32.15
6343;BME280;3204;42.698;23.298;2022-09-21T11:30:17;95009.88;;;22.42;32.06
6343;BME280;3204;42.698;23.298;2022-09-21T12:00:21;95017.16;;;17.60;43.70
6343;BME280;3204;42.698;23.298;2022-09-21T12:05:39;95011.50;;;17.53;44.97
6343;BME280;3204;42.698;23.298;2022-09-21T12:11:42;95017.13;;;16.29;47.46
6343;BME280;3204;42.698;23.298;2022-09-21T12:16:57;95021.47;;;16.18;48.54
6343;BME280;3204;42.698;23.298;2022-09-21T12:22:11;95018.50;;;15.55;50.66
6343;BME280;3204;42.698;23.298;2022-09-21T12:25:00;95030.22;;;15.23;52.53
6343;BME280;3204;42.698;23.298;2022-09-21T12:27:35;95026.34;;;15.24;52.77
6343;BME280;3204;42.698;23.298;2022-09-21T12:30:06;95027.34;;;15.40;52.62
6343;BME280;3204;42.698;23.298;2022-09-21T12:32:41;95025.06;;;15.42;52.49
6343;BME280;3204;42.698;23.298;2022-09-21T12:35:15;95025.13;;;15.66;51.03
6343;BME280;3204;42.698;23.298;2022-09-21T12:37:57;95028.94;;;15.97;49.93
6343;BME280;3204;42.698;23.298;2022-09-21T12:40:33;95015.06;;;16.14;46.87
6343;BME280;3204;42.698;23.298;2022-09-21T12:43:27;95018.00;;;15.97;45.72
6343;BME280;3204;42.698;23.298;2022-09-21T12:46:24;95008.66;;;16.34;45.24
6343;BME280;3204;42.698;23.298;2022-09-21T12:48:51;94986.75;;;17.10;43.90
6343;BME280;3204;42.698;23.298;2022-09-21T12:51:24;95010.84;;;17.32;44.66
6343;BME280;3204;42.698;23.298;2022-09-21T12:53:55;95014.16;;;17.65;44.45
6343;BME280;3204;42.698;23.298;2022-09-21T12:59:07;95011.78;;;18.26;41.57
6343;BME280;3204;42.698;23.298;2022-09-21T13:01:53;95015.28;;;18.38;41.61
6343;BME280;3204;42.698;23.298;2022-09-21T13:07:21;95002.53;;;18.99;41.25
6343;BME280;3204;42.698;23.298;2022-09-21T13:09:54;95006.38;;;18.60;41.83
6343;BME280;3204;42.698;23.298;2022-09-21T13:12:24;95006.94;;;18.50;41.08
6343;BME280;3204;42.698;23.298;2022-09-21T13:15:00;95005.75;;;18.67;41.12
6343;BME280;3204;42.698;23.298;2022-09-21T13:17:29;95014.91;;;18.55;40.60
6343;BME280;3204;42.698;23.298;2022-09-21T13:20:15;95006.44;;;18.64;38.86
6343;BME280;3204;42.698;23.298;2022-09-21T13:22:41;95004.72;;;18.90;39.00
6343;BME280;3204;42.698;23.298;2022-09-21T13:30:42;94996.63;;;19.73;37.76
6343;BME280;3204;42.698;23.298;2022-09-21T13:36:00;94995.59;;;20.04;37.03
6343;BME280;3204;42.698;23.298;2022-09-21T13:39:03;94997.84;;;19.98;36.68
6343;BME280;3204;42.698;23.298;2022-09-21T13:41:29;94985.97;;;20.13;36.66
6343;BME280;3204;42.698;23.298;2022-09-21T13:52:41;94989.38;;;19.65;36.37
6343;BME280;3204;42.698;23.298;2022-09-21T13:54:50;94981.50;;;19.64;36.79
6343;BME280;3204;42.698;23.298;2022-09-21T14:02:55;94969.34;;;18.89;37.63
6343;BME280;3204;42.698;23.298;2022-09-21T14:05:33;94981.78;;;18.48;38.03
6343;BME280;3204;42.698;23.298;2022-09-21T14:08:02;94982.06;;;18.12;39.35
6343;BME280;3204;42.698;23.298;2022-09-21T14:10:31;94976.22;;;17.98;39.87
6343;BME280;3204;42.698;23.298;2022-09-21T14:12:58;94974.44;;;17.90;40.41
6343;BME280;3204;42.698;23.298;2022-09-21T14:21:16;94967.00;;;17.91;40.38
6343;BME280;3204;42.698;23.298;2022-09-21T14:29:43;94971.69;;;17.59;39.82
6343;BME280;3204;42.698;23.298;2022-09-21T14:32:18;94970.69;;;17.52;38.97
6343;BME280;3204;42.698;23.298;2022-09-21T14:34:49;94963.81;;;17.30;39.20
6343;BME280;3204;42.698;23.298;2022-09-21T14:37:43;94971.28;;;17.18;39.91
6343;BME280;3204;42.698;23.298;2022-09-21T14:40:29;94968.41;;;16.99;40.42
6343;BME280;3204;42.698;23.298;2022-09-21T14:42:57;94973.22;;;16.90;40.57
6343;BME280;3204;42.698;23.298;2022-09-21T14:52:06;94985.34;;;16.77;42.25
6343;BME280;3204;42.698;23.298;2022-09-21T14:54:41;94981.19;;;16.55;42.57
6343;BME280;3204;42.698;23.298;2022-09-21T15:02:39;94985.66;;;15.99;43.76
6343;BME280;3204;42.698;23.298;2022-09-21T15:11:35;94979.25;;;15.83;43.73
6343;BME280;3204;42.698;23.298;2022-09-21T15:16:47;94982.81;;;15.96;44.69
6343;BME280;3204;42.698;23.298;2022-09-21T15:21:49;94990.53;;;15.82;43.25
6343;BME280;3204;42.698;23.298;2022-09-21T15:24:24;94999.91;;;15.93;42.83
6343;BME280;3204;42.698;23.298;2022-09-21T15:26:59;94999.31;;;15.87;42.93
6343;BME280;3204;42.698;23.298;2022-09-21T15:29:28;94993.94;;;15.79;42.69
6343;BME280;3204;42.698;23.298;2022-09-21T15:31:56;94995.09;;;15.78;42.42
6343;BME280;3204;42.698;23.298;2022-09-21T15:34:22;94994.88;;;15.83;42.42
6343;BME280;3204;42.698;23.298;2022-09-21T15:36:48;95008.00;;;15.89;42.12
6343;BME280;3204;42.698;23.298;2022-09-21T15:39:28;94998.06;;;15.85;41.92
6343;BME280;3204;42.698;23.298;2022-09-21T15:42:12;95003.41;;;15.81;42.07
6343;BME280;3204;42.698;23.298;2022-09-21T15:44:42;95011.50;;;15.90;41.82
6343;BME280;3204;42.698;23.298;2022-09-21T15:47:13;95002.16;;;15.79;42.34
6343;BME280;3204;42.698;23.298;2022-09-21T15:49:40;95014.56;;;15.76;43.04
6343;BME280;3204;42.698;23.298;2022-09-21T15:52:32;95020.72;;;15.73;42.71
6343;BME280;3204;42.698;23.298;2022-09-21T15:55:12;95020.38;;;15.63;42.50
6343;BME280;3204;42.698;23.298;2022-09-21T15:57:41;95017.91;;;15.49;43.36
6343;BME280;3204;42.698;23.298;2022-09-21T16:02:39;95025.94;;;15.34;43.78
6343;BME280;3204;42.698;23.298;2022-09-21T16:05:09;95036.59;;;15.27;43.52
6343;BME280;3204;42.698;23.298;2022-09-21T16:07:39;95040.47;;;15.26;43.09
6343;BME280;3204;42.698;23.298;2022-09-21T16:10:37;95040.81;;;15.24;43.40
6343;BME280;3204;42.698;23.298;2022-09-21T16:13:23;95021.06;;;15.07;44.96